sensor_id;sensor_type;location;lat;lon;timestamp;temperature;humidity
62797;DHT22;48839;48.546;-4.178;2022-07-09T00:02:04;15.00;99.90
62797;DHT22;48839;48.546;-4.178;2022-07-09T00:04:30;15.10;99.90
62797;DHT22;48839;48.546;-4.178;2022-07-09T00:06:55;15.20;99.90
62797;DHT22;48839;48.546;-4.178;2022-07-09T00:09:21;15.30;99.90
62797;DHT22;48839;48.546;-4.178;2022-07-09T00:11:47;15.20;99.90
62797;DHT22;48839;48.546;-4.178;2022-07-09T00:14:13;15.10;99.90
62797;DHT22;48839;48.546;-4.178;2022-07-09T00:16:38;15.30;99.90
62797;DHT22;48839;48.546;-4.178;2022-07-09T00:19:04;15.20;99.90
62797;DHT22;48839;48.546;-4.178;2022-07-09T00:21:30;15.30;99.90
62797;DHT22;48839;48.546;-4.178;2022-07-09T00:23:55;15.20;99.90
62797;DHT22;48839;48.546;-4.178;2022-07-09T00:26:21;15.00;99.90
62797;DHT22;48839;48.546;-4.178;2022-07-09T00:28:47;14.90;99.90
62797;DHT22;48839;48.546;-4.178;2022-07-09T00:31:12;14.70;99.90
62797;DHT22;48839;48.546;-4.178;2022-07-09T00:33:38;14.90;99.90
62797;DHT22;48839;48.546;-4.178;2022-07-09T00:36:04;14.60;99.90
62797;DHT22;48839;48.546;-4.178;2022-07-09T00:38:30;14.80;99.90
62797;DHT22;48839;48.546;-4.178;2022-07-09T00:40:55;14.50;99.90
62797;DHT22;48839;48.546;-4.178;2022-07-09T00:43:22;14.60;99.90
62797;DHT22;48839;48.546;-4.178;2022-07-09T00:45:48;14.60;99.90
62797;DHT22;48839;48.546;-4.178;2022-07-09T00:48:14;14.60;99.90
62797;DHT22;48839;48.546;-4.178;2022-07-09T00:50:42;14.60;99.90
62797;DHT22;48839;48.546;-4.178;2022-07-09T00:53:09;14.60;99.90
62797;DHT22;48839;48.546;-4.178;2022-07-09T00:55:37;14.60;99.90
62797;DHT22;48839;48.546;-4.178;2022-07-09T00:58:03;14.50;99.90
62797;DHT22;48839;48.546;-4.178;2022-07-09T01:00:29;14.40;99.90
62797;DHT22;48839;48.546;-4.178;2022-07-09T01:02:55;14.60;99.90
62797;DHT22;48839;48.546;-4.178;2022-07-09T01:05:21;14.60;99.90
62797;DHT22;48839;48.546;-4.178;2022-07-09T01:07:47;14.60;99.90
62797;DHT22;48839;48.546;-4.178;2022-07-09T01:10:13;14.50;99.90
62797;DHT22;48839;48.546;-4.178;2022-07-09T01:12:38;14.70;99.90
62797;DHT22;48839;48.546;-4.178;2022-07-09T01:15:05;14.70;99.90
62797;DHT22;48839;48.546;-4.178;2022-07-09T01:17:38;14.70;99.90
62797;DHT22;48839;48.546;-4.178;2022-07-09T01:20:05;14.80;99.90
62797;DHT22;48839;48.546;-4.178;2022-07-09T01:22:30;14.80;99.90
62797;DHT22;48839;48.546;-4.178;2022-07-09T01:24:57;14.60;99.90
62797;DHT22;48839;48.546;-4.178;2022-07-09T01:27:24;14.80;99.90
62797;DHT22;48839;48.546;-4.178;2022-07-09T01:29:50;14.60;99.90
62797;DHT22;48839;48.546;-4.178;2022-07-09T01:32:16;14.40;99.90
62797;DHT22;48839;48.546;-4.178;2022-07-09T01:34:42;14.20;99.90
62797;DHT22;48839;48.546;-4.178;2022-07-09T01:37:08;14.20;99.90
62797;DHT22;48839;48.546;-4.178;2022-07-09T01:39:33;14.00;99.90
62797;DHT22;48839;48.546;-4.178;2022-07-09T01:41:59;13.80;99.90
62797;DHT22;48839;48.546;-4.178;2022-07-09T01:44:24;13.90;99.90
62797;DHT22;48839;48.546;-4.178;2022-07-09T01:46:50;13.80;99.90
62797;DHT22;48839;48.546;-4.178;2022-07-09T01:49:16;13.60;99.90
62797;DHT22;48839;48.546;-4.178;2022-07-09T01:51:42;13.90;99.90
62797;DHT22;48839;48.546;-4.178;2022-07-09T01:54:07;13.70;99.90
62797;DHT22;48839;48.546;-4.178;2022-07-09T01:56:33;13.80;99.90
62797;DHT22;48839;48.546;-4.178;2022-07-09T01:59:00;13.80;99.90
62797;DHT22;48839;48.546;-4.178;2022-07-09T02:01:26;13.60;99.90
62797;DHT22;48839;48.546;-4.178;2022-07-09T02:03:52;13.90;99.90
62797;DHT22;48839;48.546;-4.178;2022-07-09T02:06:18;13.70;99.90
62797;DHT22;48839;48.546;-4.178;2022-07-09T02:08:43;13.70;99.90
62797;DHT22;48839;48.546;-4.178;2022-07-09T02:11:09;13.90;99.90
62797;DHT22;48839;48.546;-4.178;2022-07-09T02:13:35;14.00;99.90
62797;DHT22;48839;48.546;-4.178;2022-07-09T02:16:01;13.90;99.90
62797;DHT22;48839;48.546;-4.178;2022-07-09T02:18:28;13.70;99.90
62797;DHT22;48839;48.546;-4.178;2022-07-09T02:20:54;13.90;99.90
62797;DHT22;48839;48.546;-4.178;2022-07-09T02:23:22;13.90;99.90
62797;DHT22;48839;48.546;-4.178;2022-07-09T02:25:48;13.90;99.90
62797;DHT22;48839;48.546;-4.178;2022-07-09T02:28:13;14.10;99.90
62797;DHT22;48839;48.546;-4.178;2022-07-09T02:30:39;14.00;99.90
62797;DHT22;48839;48.546;-4.178;2022-07-09T02:33:05;14.40;99.90
62797;DHT22;48839;48.546;-4.178;2022-07-09T02:35:31;14.50;99.90
62797;DHT22;48839;48.546;-4.178;2022-07-09T02:37:57;14.40;99.90
62797;DHT22;48839;48.546;-4.178;2022-07-09T02:40:23;14.30;99.90
62797;DHT22;48839;48.546;-4.178;2022-07-09T02:42:49;14.30;99.90
62797;DHT22;48839;48.546;-4.178;2022-07-09T02:45:14;14.20;99.90
62797;DHT22;48839;48.546;-4.178;2022-07-09T02:47:40;14.10;99.90
62797;DHT22;48839;48.546;-4.178;2022-07-09T02:50:06;13.70;99.90
62797;DHT22;48839;48.546;-4.178;2022-07-09T02:52:32;13.70;99.90
62797;DHT22;48839;48.546;-4.178;2022-07-09T02:54:57;13.70;99.90
62797;DHT22;48839;48.546;-4.178;2022-07-09T02:57:23;13.70;99.90
62797;DHT22;48839;48.546;-4.178;2022-07-09T02:59:48;13.60;99.90
62797;DHT22;48839;48.546;-4.178;2022-07-09T03:02:14;13.60;99.90
62797;DHT22;48839;48.546;-4.178;2022-07-09T03:04:40;13.70;99.90
62797;DHT22;48839;48.546;-4.178;2022-07-09T03:07:06;13.70;99.90
62797;DHT22;48839;48.546;-4.178;2022-07-09T03:09:31;13.80;99.90
62797;DHT22;48839;48.546;-4.178;2022-07-09T03:11:57;13.60;99.90
62797;DHT22;48839;48.546;-4.178;2022-07-09T03:14:22;13.50;99.90
62797;DHT22;48839;48.546;-4.178;2022-07-09T03:16:48;13.50;99.90
62797;DHT22;48839;48.546;-4.178;2022-07-09T03:19:13;13.40;99.90
62797;DHT22;48839;48.546;-4.178;2022-07-09T03:21:39;13.40;99.90
62797;DHT22;48839;48.546;-4.178;2022-07-09T03:24:05;13.60;99.90
62797;DHT22;48839;48.546;-4.178;2022-07-09T03:26:33;13.50;99.90
62797;DHT22;48839;48.546;-4.178;2022-07-09T03:28:59;13.50;99.90
62797;DHT22;48839;48.546;-4.178;2022-07-09T03:31:24;13.50;99.90
62797;DHT22;48839;48.546;-4.178;2022-07-09T03:33:50;13.50;99.90
62797;DHT22;48839;48.546;-4.178;2022-07-09T03:36:18;13.50;99.90
62797;DHT22;48839;48.546;-4.178;2022-07-09T03:38:44;13.40;99.90
62797;DHT22;48839;48.546;-4.178;2022-07-09T03:41:10;13.40;99.90
62797;DHT22;48839;48.546;-4.178;2022-07-09T03:43:35;13.60;99.90
62797;DHT22;48839;48.546;-4.178;2022-07-09T03:46:01;13.40;99.90
62797;DHT22;48839;48.546;-4.178;2022-07-09T03:48:26;13.70;99.90
62797;DHT22;48839;48.546;-4.178;2022-07-09T03:50:52;13.60;99.90
62797;DHT22;48839;48.546;-4.178;2022-07-09T03:53:18;13.50;99.90
62797;DHT22;48839;48.546;-4.178;2022-07-09T03:55:43;13.50;99.90
62797;DHT22;48839;48.546;-4.178;2022-07-09T03:58:10;13.60;99.90
62797;DHT22;48839;48.546;-4.178;2022-07-09T04:00:36;13.40;99.90
62797;DHT22;48839;48.546;-4.178;2022-07-09T04:03:01;13.40;99.90
62797;DHT22;48839;48.546;-4.178;2022-07-09T04:05:27;13.60;99.90
62797;DHT22;48839;48.546;-4.178;2022-07-09T04:07:53;13.50;99.90
62797;DHT22;48839;48.546;-4.178;2022-07-09T04:10:18;13.80;99.90
62797;DHT22;48839;48.546;-4.178;2022-07-09T04:12:44;13.60;99.90
62797;DHT22;48839;48.546;-4.178;2022-07-09T04:15:10;13.60;99.90
62797;DHT22;48839;48.546;-4.178;2022-07-09T04:17:36;13.50;99.90
62797;DHT22;48839;48.546;-4.178;2022-07-09T04:20:01;13.40;99.90
62797;DHT22;48839;48.546;-4.178;2022-07-09T04:22:27;13.30;99.90
62797;DHT22;48839;48.546;-4.178;2022-07-09T04:24:53;13.50;99.90
62797;DHT22;48839;48.546;-4.178;2022-07-09T04:27:18;13.80;99.90
62797;DHT22;48839;48.546;-4.178;2022-07-09T04:29:44;14.00;99.90
62797;DHT22;48839;48.546;-4.178;2022-07-09T04:32:09;13.70;99.90
62797;DHT22;48839;48.546;-4.178;2022-07-09T04:34:35;13.60;99.90
62797;DHT22;48839;48.546;-4.178;2022-07-09T04:37:01;13.80;99.90
62797;DHT22;48839;48.546;-4.178;2022-07-09T04:39:26;13.80;99.90
62797;DHT22;48839;48.546;-4.178;2022-07-09T04:41:52;14.00;99.90
62797;DHT22;48839;48.546;-4.178;2022-07-09T04:44:18;13.90;99.90
62797;DHT22;48839;48.546;-4.178;2022-07-09T04:46:44;14.00;99.90
62797;DHT22;48839;48.546;-4.178;2022-07-09T04:49:10;14.00;99.90
62797;DHT22;48839;48.546;-4.178;2022-07-09T04:51:36;13.60;99.90
62797;DHT22;48839;48.546;-4.178;2022-07-09T04:54:01;13.60;99.90
62797;DHT22;48839;48.546;-4.178;2022-07-09T04:56:27;13.90;99.90
62797;DHT22;48839;48.546;-4.178;2022-07-09T04:58:53;13.90;99.90
62797;DHT22;48839;48.546;-4.178;2022-07-09T05:01:22;14.30;99.90
62797;DHT22;48839;48.546;-4.178;2022-07-09T05:03:49;14.40;99.90
62797;DHT22;48839;48.546;-4.178;2022-07-09T05:06:18;14.50;99.90
62797;DHT22;48839;48.546;-4.178;2022-07-09T05:08:44;14.80;99.90
62797;DHT22;48839;48.546;-4.178;2022-07-09T05:11:10;15.00;99.90
62797;DHT22;48839;48.546;-4.178;2022-07-09T05:13:39;15.10;99.90
62797;DHT22;48839;48.546;-4.178;2022-07-09T05:16:06;15.50;99.90
62797;DHT22;48839;48.546;-4.178;2022-07-09T05:18:32;15.50;99.90
62797;DHT22;48839;48.546;-4.178;2022-07-09T05:20:57;15.60;99.90
62797;DHT22;48839;48.546;-4.178;2022-07-09T05:23:23;15.60;99.90
62797;DHT22;48839;48.546;-4.178;2022-07-09T05:25:49;15.70;99.90
62797;DHT22;48839;48.546;-4.178;2022-07-09T05:28:15;16.60;99.90
62797;DHT22;48839;48.546;-4.178;2022-07-09T05:30:41;18.90;99.90
62797;DHT22;48839;48.546;-4.178;2022-07-09T05:33:07;20.60;99.90
62797;DHT22;48839;48.546;-4.178;2022-07-09T05:35:33;21.90;99.90
62797;DHT22;48839;48.546;-4.178;2022-07-09T05:37:59;22.60;99.90
62797;DHT22;48839;48.546;-4.178;2022-07-09T05:40:25;23.00;99.90
62797;DHT22;48839;48.546;-4.178;2022-07-09T05:42:50;23.30;99.90
62797;DHT22;48839;48.546;-4.178;2022-07-09T05:45:16;23.70;99.90
62797;DHT22;48839;48.546;-4.178;2022-07-09T05:47:42;24.00;99.90
62797;DHT22;48839;48.546;-4.178;2022-07-09T05:50:08;24.40;99.90
62797;DHT22;48839;48.546;-4.178;2022-07-09T05:52:34;25.10;99.90
62797;DHT22;48839;48.546;-4.178;2022-07-09T05:55:00;25.40;99.90
62797;DHT22;48839;48.546;-4.178;2022-07-09T05:57:26;26.50;99.90
62797;DHT22;48839;48.546;-4.178;2022-07-09T05:59:51;26.70;99.90
62797;DHT22;48839;48.546;-4.178;2022-07-09T06:02:17;26.50;99.90
62797;DHT22;48839;48.546;-4.178;2022-07-09T06:04:45;26.60;99.90
62797;DHT22;48839;48.546;-4.178;2022-07-09T06:07:10;26.20;99.90
62797;DHT22;48839;48.546;-4.178;2022-07-09T06:09:36;27.00;99.90
62797;DHT22;48839;48.546;-4.178;2022-07-09T06:12:02;26.80;99.90
62797;DHT22;48839;48.546;-4.178;2022-07-09T06:14:28;27.60;99.90
62797;DHT22;48839;48.546;-4.178;2022-07-09T06:16:54;27.80;99.90
62797;DHT22;48839;48.546;-4.178;2022-07-09T06:19:20;29.00;99.90
62797;DHT22;48839;48.546;-4.178;2022-07-09T06:21:46;29.30;99.90
62797;DHT22;48839;48.546;-4.178;2022-07-09T06:24:12;28.80;99.90
62797;DHT22;48839;48.546;-4.178;2022-07-09T06:26:37;29.60;99.90
62797;DHT22;48839;48.546;-4.178;2022-07-09T06:29:03;29.80;99.90
62797;DHT22;48839;48.546;-4.178;2022-07-09T06:31:29;29.50;99.90
62797;DHT22;48839;48.546;-4.178;2022-07-09T06:33:54;29.70;22.10
62797;DHT22;48839;48.546;-4.178;2022-07-09T06:36:22;29.40;1.00
62797;DHT22;48839;48.546;-4.178;2022-07-09T06:38:47;29.60;1.00
62797;DHT22;48839;48.546;-4.178;2022-07-09T06:41:32;28.90;99.90
62797;DHT22;48839;48.546;-4.178;2022-07-09T06:43:58;30.00;99.90
62797;DHT22;48839;48.546;-4.178;2022-07-09T06:46:23;28.80;99.90
62797;DHT22;48839;48.546;-4.178;2022-07-09T06:48:49;29.90;99.90
62797;DHT22;48839;48.546;-4.178;2022-07-09T06:51:15;29.90;99.90
62797;DHT22;48839;48.546;-4.178;2022-07-09T06:53:40;29.50;99.90
62797;DHT22;48839;48.546;-4.178;2022-07-09T06:56:06;29.60;99.90
62797;DHT22;48839;48.546;-4.178;2022-07-09T06:58:32;29.10;99.90
62797;DHT22;48839;48.546;-4.178;2022-07-09T07:00:58;28.70;92.00
62797;DHT22;48839;48.546;-4.178;2022-07-09T07:03:24;28.40;1.00
62797;DHT22;48839;48.546;-4.178;2022-07-09T07:05:49;28.30;46.30
62797;DHT22;48839;48.546;-4.178;2022-07-09T07:08:15;28.10;56.10
62797;DHT22;48839;48.546;-4.178;2022-07-09T07:10:41;27.60;76.70
62797;DHT22;48839;48.546;-4.178;2022-07-09T07:13:06;27.80;69.20
62797;DHT22;48839;48.546;-4.178;2022-07-09T07:15:32;27.40;32.40
62797;DHT22;48839;48.546;-4.178;2022-07-09T07:17:57;26.50;99.90
62797;DHT22;48839;48.546;-4.178;2022-07-09T07:20:23;25.90;99.90
62797;DHT22;48839;48.546;-4.178;2022-07-09T07:22:50;25.70;99.90
62797;DHT22;48839;48.546;-4.178;2022-07-09T07:25:16;25.80;99.90
62797;DHT22;48839;48.546;-4.178;2022-07-09T07:27:42;25.50;99.90
62797;DHT22;48839;48.546;-4.178;2022-07-09T07:30:08;24.00;1.00
62797;DHT22;48839;48.546;-4.178;2022-07-09T07:32:34;23.70;99.90
62797;DHT22;48839;48.546;-4.178;2022-07-09T07:34:59;24.90;99.90
62797;DHT22;48839;48.546;-4.178;2022-07-09T07:37:25;25.00;99.90
62797;DHT22;48839;48.546;-4.178;2022-07-09T07:39:51;24.60;99.90
62797;DHT22;48839;48.546;-4.178;2022-07-09T07:42:17;24.80;99.90
62797;DHT22;48839;48.546;-4.178;2022-07-09T07:44:42;25.10;99.90
62797;DHT22;48839;48.546;-4.178;2022-07-09T07:47:08;24.60;99.90
62797;DHT22;48839;48.546;-4.178;2022-07-09T07:49:34;24.40;99.90
62797;DHT22;48839;48.546;-4.178;2022-07-09T07:51:59;25.30;99.90
62797;DHT22;48839;48.546;-4.178;2022-07-09T07:54:25;25.20;99.90
62797;DHT22;48839;48.546;-4.178;2022-07-09T07:56:51;25.00;99.90
62797;DHT22;48839;48.546;-4.178;2022-07-09T07:59:17;24.90;99.90
62797;DHT22;48839;48.546;-4.178;2022-07-09T08:01:43;24.50;99.90
62797;DHT22;48839;48.546;-4.178;2022-07-09T08:04:09;25.00;99.90
62797;DHT22;48839;48.546;-4.178;2022-07-09T08:06:34;24.80;99.90
62797;DHT22;48839;48.546;-4.178;2022-07-09T08:09:04;25.70;99.90
62797;DHT22;48839;48.546;-4.178;2022-07-09T08:11:30;25.10;99.90
62797;DHT22;48839;48.546;-4.178;2022-07-09T08:13:56;24.90;99.90
62797;DHT22;48839;48.546;-4.178;2022-07-09T08:16:21;25.20;99.90
62797;DHT22;48839;48.546;-4.178;2022-07-09T08:18:47;24.70;99.90
62797;DHT22;48839;48.546;-4.178;2022-07-09T08:21:14;24.50;99.90
62797;DHT22;48839;48.546;-4.178;2022-07-09T08:23:39;25.00;99.90
62797;DHT22;48839;48.546;-4.178;2022-07-09T08:26:28;25.30;99.90
62797;DHT22;48839;48.546;-4.178;2022-07-09T08:28:55;25.70;99.90
62797;DHT22;48839;48.546;-4.178;2022-07-09T08:31:22;25.40;99.90
62797;DHT22;48839;48.546;-4.178;2022-07-09T08:33:48;26.10;99.90
62797;DHT22;48839;48.546;-4.178;2022-07-09T08:36:14;25.80;10.10
62797;DHT22;48839;48.546;-4.178;2022-07-09T08:38:39;25.30;1.00
62797;DHT22;48839;48.546;-4.178;2022-07-09T08:41:06;25.10;1.00
62797;DHT22;48839;48.546;-4.178;2022-07-09T08:43:33;25.40;1.00
62797;DHT22;48839;48.546;-4.178;2022-07-09T08:45:59;25.10;1.00
62797;DHT22;48839;48.546;-4.178;2022-07-09T08:48:25;25.20;99.90
62797;DHT22;48839;48.546;-4.178;2022-07-09T08:50:51;25.60;99.90
62797;DHT22;48839;48.546;-4.178;2022-07-09T08:53:18;25.90;99.90
62797;DHT22;48839;48.546;-4.178;2022-07-09T08:55:45;25.90;99.90
62797;DHT22;48839;48.546;-4.178;2022-07-09T08:58:12;26.20;99.90
62797;DHT22;48839;48.546;-4.178;2022-07-09T09:00:42;25.90;99.90
62797;DHT22;48839;48.546;-4.178;2022-07-09T09:03:07;26.20;99.90
62797;DHT22;48839;48.546;-4.178;2022-07-09T09:05:33;25.80;99.90
62797;DHT22;48839;48.546;-4.178;2022-07-09T09:07:59;25.90;99.90
62797;DHT22;48839;48.546;-4.178;2022-07-09T09:10:26;26.00;99.90
62797;DHT22;48839;48.546;-4.178;2022-07-09T09:13:00;26.10;99.90
62797;DHT22;48839;48.546;-4.178;2022-07-09T09:15:26;25.60;99.90
62797;DHT22;48839;48.546;-4.178;2022-07-09T09:17:52;25.40;99.90
62797;DHT22;48839;48.546;-4.178;2022-07-09T09:20:18;25.70;99.90
62797;DHT22;48839;48.546;-4.178;2022-07-09T09:22:49;26.30;99.90
62797;DHT22;48839;48.546;-4.178;2022-07-09T09:25:19;26.30;99.90
62797;DHT22;48839;48.546;-4.178;2022-07-09T09:27:53;26.00;91.60
62797;DHT22;48839;48.546;-4.178;2022-07-09T09:30:19;26.40;99.90
62797;DHT22;48839;48.546;-4.178;2022-07-09T09:32:44;26.90;99.90
62797;DHT22;48839;48.546;-4.178;2022-07-09T09:35:10;26.40;47.60
62797;DHT22;48839;48.546;-4.178;2022-07-09T09:37:36;26.00;27.80
62797;DHT22;48839;48.546;-4.178;2022-07-09T09:40:09;25.50;1.00
62797;DHT22;48839;48.546;-4.178;2022-07-09T09:42:40;25.30;1.00
62797;DHT22;48839;48.546;-4.178;2022-07-09T09:45:07;25.30;99.90
62797;DHT22;48839;48.546;-4.178;2022-07-09T09:47:33;25.50;1.00
62797;DHT22;48839;48.546;-4.178;2022-07-09T09:50:01;25.60;1.00
62797;DHT22;48839;48.546;-4.178;2022-07-09T09:52:27;26.40;26.10
62797;DHT22;48839;48.546;-4.178;2022-07-09T09:54:54;26.40;1.00
62797;DHT22;48839;48.546;-4.178;2022-07-09T09:57:21;26.20;1.00
62797;DHT22;48839;48.546;-4.178;2022-07-09T09:59:51;26.50;1.00
62797;DHT22;48839;48.546;-4.178;2022-07-09T10:02:19;26.80;1.00
62797;DHT22;48839;48.546;-4.178;2022-07-09T10:04:45;26.80;1.00
62797;DHT22;48839;48.546;-4.178;2022-07-09T10:07:12;27.10;1.00
62797;DHT22;48839;48.546;-4.178;2022-07-09T10:09:38;26.90;1.00
62797;DHT22;48839;48.546;-4.178;2022-07-09T10:12:05;26.60;99.90
62797;DHT22;48839;48.546;-4.178;2022-07-09T10:14:33;26.80;1.00
62797;DHT22;48839;48.546;-4.178;2022-07-09T10:17:10;27.00;1.00
62797;DHT22;48839;48.546;-4.178;2022-07-09T10:19:36;26.60;1.00
62797;DHT22;48839;48.546;-4.178;2022-07-09T10:22:03;26.30;99.90
62797;DHT22;48839;48.546;-4.178;2022-07-09T10:24:30;26.00;99.90
62797;DHT22;48839;48.546;-4.178;2022-07-09T10:27:06;26.30;99.90
62797;DHT22;48839;48.546;-4.178;2022-07-09T10:29:32;26.70;1.00
62797;DHT22;48839;48.546;-4.178;2022-07-09T10:31:58;27.50;20.00
62797;DHT22;48839;48.546;-4.178;2022-07-09T10:34:36;26.90;1.00
62797;DHT22;48839;48.546;-4.178;2022-07-09T10:37:08;27.10;10.20
62797;DHT22;48839;48.546;-4.178;2022-07-09T10:39:34;27.20;1.00
62797;DHT22;48839;48.546;-4.178;2022-07-09T10:42:01;26.70;1.00
62797;DHT22;48839;48.546;-4.178;2022-07-09T10:44:37;27.30;1.00
62797;DHT22;48839;48.546;-4.178;2022-07-09T10:47:06;27.30;1.00
62797;DHT22;48839;48.546;-4.178;2022-07-09T10:49:36;27.30;99.90
62797;DHT22;48839;48.546;-4.178;2022-07-09T10:52:02;26.90;99.90
62797;DHT22;48839;48.546;-4.178;2022-07-09T10:54:28;27.20;99.90
62797;DHT22;48839;48.546;-4.178;2022-07-09T10:56:54;26.70;99.90
62797;DHT22;48839;48.546;-4.178;2022-07-09T10:59:21;27.30;99.90
62797;DHT22;48839;48.546;-4.178;2022-07-09T11:01:47;27.60;99.90
62797;DHT22;48839;48.546;-4.178;2022-07-09T11:04:27;27.20;99.90
62797;DHT22;48839;48.546;-4.178;2022-07-09T11:06:53;26.80;99.90
62797;DHT22;48839;48.546;-4.178;2022-07-09T11:09:19;27.10;99.90
62797;DHT22;48839;48.546;-4.178;2022-07-09T11:11:45;26.80;99.90
62797;DHT22;48839;48.546;-4.178;2022-07-09T11:14:13;27.10;99.90
62797;DHT22;48839;48.546;-4.178;2022-07-09T11:16:39;26.80;99.90
62797;DHT22;48839;48.546;-4.178;2022-07-09T11:19:14;26.80;99.90
62797;DHT22;48839;48.546;-4.178;2022-07-09T11:21:40;27.00;99.90
62797;DHT22;48839;48.546;-4.178;2022-07-09T11:24:13;26.80;99.90
62797;DHT22;48839;48.546;-4.178;2022-07-09T11:26:40;26.60;99.90
62797;DHT22;48839;48.546;-4.178;2022-07-09T11:29:09;26.70;99.90
62797;DHT22;48839;48.546;-4.178;2022-07-09T11:31:36;27.30;99.90
62797;DHT22;48839;48.546;-4.178;2022-07-09T11:34:03;27.10;99.90
62797;DHT22;48839;48.546;-4.178;2022-07-09T11:36:58;27.10;99.90
62797;DHT22;48839;48.546;-4.178;2022-07-09T11:39:31;26.70;99.90
62797;DHT22;48839;48.546;-4.178;2022-07-09T11:41:58;27.20;99.90
62797;DHT22;48839;48.546;-4.178;2022-07-09T11:44:27;27.10;99.90
62797;DHT22;48839;48.546;-4.178;2022-07-09T11:49:39;27.00;99.90
62797;DHT22;48839;48.546;-4.178;2022-07-09T11:52:20;27.50;99.90
62797;DHT22;48839;48.546;-4.178;2022-07-09T11:55:06;26.70;99.90
62797;DHT22;48839;48.546;-4.178;2022-07-09T11:57:35;26.70;99.90
62797;DHT22;48839;48.546;-4.178;2022-07-09T12:00:03;27.10;99.90
62797;DHT22;48839;48.546;-4.178;2022-07-09T12:02:31;26.80;99.90
62797;DHT22;48839;48.546;-4.178;2022-07-09T12:04:59;26.70;99.90
62797;DHT22;48839;48.546;-4.178;2022-07-09T12:07:26;26.60;99.90
62797;DHT22;48839;48.546;-4.178;2022-07-09T12:09:59;26.70;99.90
62797;DHT22;48839;48.546;-4.178;2022-07-09T12:12:26;26.40;99.90
62797;DHT22;48839;48.546;-4.178;2022-07-09T12:14:52;26.40;99.90
62797;DHT22;48839;48.546;-4.178;2022-07-09T12:17:27;26.80;99.90
62797;DHT22;48839;48.546;-4.178;2022-07-09T12:19:54;26.50;99.90
62797;DHT22;48839;48.546;-4.178;2022-07-09T12:22:21;26.40;99.90
62797;DHT22;48839;48.546;-4.178;2022-07-09T12:24:49;26.30;99.90
62797;DHT22;48839;48.546;-4.178;2022-07-09T12:27:14;26.60;99.90
62797;DHT22;48839;48.546;-4.178;2022-07-09T12:29:40;26.40;99.90
62797;DHT22;48839;48.546;-4.178;2022-07-09T12:32:06;26.20;99.90
62797;DHT22;48839;48.546;-4.178;2022-07-09T12:34:32;26.40;99.90
62797;DHT22;48839;48.546;-4.178;2022-07-09T12:36:58;26.40;99.90
62797;DHT22;48839;48.546;-4.178;2022-07-09T12:39:23;26.10;99.90
62797;DHT22;48839;48.546;-4.178;2022-07-09T12:41:49;26.10;99.90
62797;DHT22;48839;48.546;-4.178;2022-07-09T12:44:15;26.40;99.90
62797;DHT22;48839;48.546;-4.178;2022-07-09T12:46:40;26.30;99.90
62797;DHT22;48839;48.546;-4.178;2022-07-09T12:49:07;26.60;99.90
62797;DHT22;48839;48.546;-4.178;2022-07-09T12:51:34;26.70;99.90
62797;DHT22;48839;48.546;-4.178;2022-07-09T12:53:59;26.20;99.90
62797;DHT22;48839;48.546;-4.178;2022-07-09T12:56:26;26.60;99.90
62797;DHT22;48839;48.546;-4.178;2022-07-09T12:58:52;26.40;99.90
62797;DHT22;48839;48.546;-4.178;2022-07-09T13:01:18;26.10;99.90
62797;DHT22;48839;48.546;-4.178;2022-07-09T13:03:44;25.90;99.90
62797;DHT22;48839;48.546;-4.178;2022-07-09T13:06:09;25.70;99.90
62797;DHT22;48839;48.546;-4.178;2022-07-09T13:08:53;25.80;99.90
62797;DHT22;48839;48.546;-4.178;2022-07-09T13:11:19;25.90;99.90
62797;DHT22;48839;48.546;-4.178;2022-07-09T13:13:45;26.20;99.90
62797;DHT22;48839;48.546;-4.178;2022-07-09T13:16:11;26.00;99.90
62797;DHT22;48839;48.546;-4.178;2022-07-09T13:18:36;25.70;99.90
62797;DHT22;48839;48.546;-4.178;2022-07-09T13:21:02;26.50;99.90
62797;DHT22;48839;48.546;-4.178;2022-07-09T13:23:28;26.60;99.90
62797;DHT22;48839;48.546;-4.178;2022-07-09T13:25:53;26.10;99.90
62797;DHT22;48839;48.546;-4.178;2022-07-09T13:28:19;25.90;99.90
62797;DHT22;48839;48.546;-4.178;2022-07-09T13:30:45;26.10;99.90
62797;DHT22;48839;48.546;-4.178;2022-07-09T13:33:11;25.50;99.90
62797;DHT22;48839;48.546;-4.178;2022-07-09T13:35:36;25.60;99.90
62797;DHT22;48839;48.546;-4.178;2022-07-09T13:38:02;25.40;99.90
62797;DHT22;48839;48.546;-4.178;2022-07-09T13:40:28;25.40;99.90
62797;DHT22;48839;48.546;-4.178;2022-07-09T13:42:54;25.20;99.90
62797;DHT22;48839;48.546;-4.178;2022-07-09T13:45:19;25.40;99.90
62797;DHT22;48839;48.546;-4.178;2022-07-09T13:47:45;25.90;99.90
62797;DHT22;48839;48.546;-4.178;2022-07-09T13:50:11;25.60;99.90
62797;DHT22;48839;48.546;-4.178;2022-07-09T13:52:36;25.40;99.90
62797;DHT22;48839;48.546;-4.178;2022-07-09T13:55:02;25.50;99.90
62797;DHT22;48839;48.546;-4.178;2022-07-09T13:57:28;25.40;99.90
62797;DHT22;48839;48.546;-4.178;2022-07-09T13:59:53;25.60;99.90
62797;DHT22;48839;48.546;-4.178;2022-07-09T14:02:19;25.30;99.90
62797;DHT22;48839;48.546;-4.178;2022-07-09T14:04:45;25.70;99.90
62797;DHT22;48839;48.546;-4.178;2022-07-09T14:07:12;25.80;99.90
62797;DHT22;48839;48.546;-4.178;2022-07-09T14:09:38;25.40;99.90
62797;DHT22;48839;48.546;-4.178;2022-07-09T14:12:03;25.20;99.90
62797;DHT22;48839;48.546;-4.178;2022-07-09T14:14:29;25.30;99.90
62797;DHT22;48839;48.546;-4.178;2022-07-09T14:16:55;25.20;99.90
62797;DHT22;48839;48.546;-4.178;2022-07-09T14:19:20;24.90;99.90
62797;DHT22;48839;48.546;-4.178;2022-07-09T14:21:46;24.90;99.90
62797;DHT22;48839;48.546;-4.178;2022-07-09T14:24:13;25.00;99.90
62797;DHT22;48839;48.546;-4.178;2022-07-09T14:26:39;24.90;99.90
62797;DHT22;48839;48.546;-4.178;2022-07-09T14:29:07;24.90;99.90
62797;DHT22;48839;48.546;-4.178;2022-07-09T14:31:32;24.60;99.90
62797;DHT22;48839;48.546;-4.178;2022-07-09T14:33:58;25.00;99.90
62797;DHT22;48839;48.546;-4.178;2022-07-09T14:36:24;25.00;99.90
62797;DHT22;48839;48.546;-4.178;2022-07-09T14:38:49;25.10;99.90
62797;DHT22;48839;48.546;-4.178;2022-07-09T14:41:15;25.00;99.90
62797;DHT22;48839;48.546;-4.178;2022-07-09T14:43:41;25.00;99.90
62797;DHT22;48839;48.546;-4.178;2022-07-09T14:46:07;24.80;99.90
62797;DHT22;48839;48.546;-4.178;2022-07-09T14:48:33;24.60;99.90
62797;DHT22;48839;48.546;-4.178;2022-07-09T14:50:59;24.90;99.90
62797;DHT22;48839;48.546;-4.178;2022-07-09T14:53:25;25.00;99.90
62797;DHT22;48839;48.546;-4.178;2022-07-09T14:55:51;24.70;99.90
62797;DHT22;48839;48.546;-4.178;2022-07-09T14:58:16;24.60;99.90
62797;DHT22;48839;48.546;-4.178;2022-07-09T15:00:42;24.40;99.90
62797;DHT22;48839;48.546;-4.178;2022-07-09T15:03:08;24.40;99.90
62797;DHT22;48839;48.546;-4.178;2022-07-09T15:05:34;24.20;99.90
62797;DHT22;48839;48.546;-4.178;2022-07-09T15:08:00;24.20;99.90
62797;DHT22;48839;48.546;-4.178;2022-07-09T15:10:26;24.40;99.90
62797;DHT22;48839;48.546;-4.178;2022-07-09T15:12:52;24.20;99.90
62797;DHT22;48839;48.546;-4.178;2022-07-09T15:15:17;24.00;99.90
62797;DHT22;48839;48.546;-4.178;2022-07-09T15:17:43;24.00;99.90